Latest Weather Observations for Katanning RS

IDW60801

Issued at 7:35 pm WST Friday 24 October 2014 (issued every 30 minutes, with the page automatically refreshed every 10 minutes)

About weather observations | Map of weather stations | Latest weather observations for WA | Other Formats
Station Details ID: 010916 Name: KATANNING Lat: -33.69 Lon: 117.61 Height: 320.0 m
Data from the previous 72 hours. | See also: Recent months at Katanning RS
Date/Time
WST
Temp
°C
App
Temp
°C
Dew
Point
Rel
Hum
%
Delta-T
°C
Wind Press
QNH
hPa
Press
MSL
hPa
Rain
since 9 am
mm
Dir
 
Spd
km/h
Gust
km/h
Spd
kts
Gust
kts
24/07:30pm 16.7 14.9 9.6 63 3.8 SW 9 13 5 7 1015.5 1015.2 0.0
24/07:00pm 17.3 15.1 9.2 59 4.3 SW 11 13 6 7 1015.3 1015.0 0.0
24/06:30pm 18.5 16.3 9.3 55 4.9 WSW 11 15 6 8 1015.2 1014.8 0.0
24/06:00pm 19.9 18.0 8.9 49 5.9 WSW 9 13 5 7 1015.0 1014.6 0.0
24/05:30pm 21.4 18.6 8.7 44 6.8 W 13 17 7 9 1015.0 1014.6 0.0
24/05:00pm 22.4 19.9 8.1 40 7.6 W 11 19 6 10 1014.7 1014.3 0.0
24/04:30pm 23.1 20.6 8.4 39 7.9 WSW 11 17 6 9 1014.8 1014.4 0.0
24/04:00pm 23.2 20.4 6.9 35 8.5 WNW 11 19 6 10 1014.7 1014.3 0.0
24/03:30pm 23.2 21.6 8.1 38 8.1 SW 6 24 3 13 1014.7 1014.3 0.0
24/03:00pm 22.4 21.0 8.9 42 7.3 W 6 11 3 6 1015.1 1014.7 0.0
24/02:30pm 22.2 19.3 8.3 41 7.4 NW 13 20 7 11 1015.5 1015.2 0.0
24/02:00pm 22.1 19.1 7.9 40 7.5 NW 13 19 7 10 1015.7 1015.3 0.0
24/01:30pm 22.3 20.6 9.8 45 6.9 NE 9 19 5 10 1016.0 1015.6 0.0
24/01:00pm 21.1 19.7 8.7 45 6.6 NNW 6 15 3 8 1016.5 1016.1 0.0
24/12:30pm 21.1 19.1 8.7 45 6.6 NNW 9 19 5 10 1017.0 1016.6 0.0
24/12:00pm 19.6 18.0 8.6 49 5.8 NE 7 19 4 10 1017.4 1017.0 0.0
24/11:30am 18.2 15.9 9.0 55 4.9 N 11 19 6 10 1017.8 1017.4 0.0
24/11:00am 18.2 15.8 8.7 54 5.0 NNE 11 20 6 11 1018.0 1017.7 0.0
24/10:30am 18.0 14.9 8.8 55 4.8 NNE 15 24 8 13 1018.5 1018.2 0.0
24/10:00am 17.4 15.3 9.6 60 4.1 NNE 11 20 6 11 1019.0 1018.6 0.0
24/09:30am 16.3 13.7 9.3 63 3.7 ENE 13 19 7 10 1019.2 1018.8 0.0
24/09:00am 15.3 13.1 9.2 67 3.2 ENE 11 19 6 10 1019.1 1018.7 0.0
24/08:30am 13.6 10.7 9.5 76 2.1 ENE 15 20 8 11 1019.0 1018.6 0.0
24/08:00am 12.9 10.7 9.4 79 1.8 ENE 11 15 6 8 1019.2 1018.8 0.0
24/07:30am 12.1 10.4 9.8 86 1.2 E 9 13 5 7 1019.2 1018.8 0.0
24/07:00am 11.6 10.4 9.7 88 1.0 ENE 6 9 3 5 1019.3 1018.9 0.0
24/06:30am 10.3 9.3 8.7 90 0.8 E 4 6 2 3 1018.6 1018.3 0.0
24/06:00am 9.7 8.1 8.1 90 0.8 ESE 6 7 3 4 1018.3 1018.0 0.0
24/05:30am 9.7 8.0 8.5 92 0.6 SE 7 11 4 6 1018.3 1018.0 0.0
24/05:00am 8.2 7.1 6.8 91 0.7 SSE 2 6 1 3 1018.3 1018.0 0.0
24/04:30am 7.7 6.5 6.3 91 0.7 SE 2 6 1 3 1018.4 1018.1 0.0
24/04:00am 8.1 6.0 6.7 91 0.7 S 7 9 4 5 1018.3 1018.0 0.0
24/03:30am 8.5 6.1 7.1 91 0.7 S 9 11 5 6 1018.3 1018.0 0.0
24/03:00am 7.4 4.8 6.0 91 0.6 SSW 9 9 5 5 1018.4 1018.1 0.0
24/02:30am 7.7 5.1 6.2 90 0.7 SSW 9 9 5 5 1018.4 1018.1 0.0
24/02:00am 8.0 6.1 6.5 90 0.7 S 6 7 3 4 1018.3 1018.0 0.0
24/01:30am 8.1 6.5 6.4 89 0.8 S 4 7 2 4 1018.5 1018.2 0.0
24/01:00am 9.2 8.6 7.5 89 0.8 CALM 0 0 0 0 1018.6 1018.3 0.0
24/12:30am 9.2 7.8 7.3 88 0.9 S 4 4 2 2 1018.7 1018.4 0.0
24/12:00am 9.8 8.6 8.1 89 0.8 S 4 4 2 2 1018.8 1018.5 0.0
 
Date/Time
WST
Temp
°C
App
Temp
°C
Dew
Point
Rel
Hum
%
Delta-T
°C
Wind Press
QNH
hPa
Press
MSL
hPa
Rain
since 9 am
mm
Dir
 
Spd
km/h
Gust
km/h
Spd
kts
Gust
kts
23/11:30pm 9.4 8.8 7.3 87 1.0 CALM 0 0 0 0 1018.8 1018.5 0.0
23/11:00pm 9.0 8.2 6.6 85 1.1 CALM 0 0 0 0 1019.1 1018.7 0.0
23/10:30pm 9.7 8.3 7.1 84 1.2 S 4 7 2 4 1019.1 1018.7 0.0
23/10:00pm 9.9 7.6 7.3 84 1.3 SSW 9 11 5 6 1018.7 1018.4 0.0
23/09:30pm 10.8 9.0 8.0 83 1.4 SSW 7 11 4 6 1018.7 1018.4 0.0
23/09:00pm 10.9 9.1 7.8 81 1.5 SSW 7 11 4 6 1018.7 1018.4 0.0
23/08:30pm 11.5 9.6 7.6 77 1.9 SSW 7 9 4 5 1018.7 1018.4 0.0
23/08:00pm 12.9 10.4 8.2 73 2.4 SSW 11 17 6 9 1018.5 1018.2 0.0
23/07:30pm 13.6 11.2 8.7 72 2.5 SW 11 15 6 8 1017.9 1017.5 0.0
23/07:00pm 14.3 12.4 9.1 71 2.7 SSW 9 15 5 8 1017.3 1016.9 0.0
23/06:30pm 15.4 13.6 9.3 67 3.2 SSW 9 17 5 9 1016.8 1016.4 0.0
23/06:00pm 16.8 13.1 9.5 62 3.9 SSW 19 26 10 14 1016.3 1015.9 0.0
23/05:30pm 17.4 13.7 9.3 59 4.3 SSW 19 26 10 14 1016.0 1015.6 0.0
23/05:00pm 19.0 14.5 8.6 51 5.5 SW 22 33 12 18 1015.5 1015.2 0.0
23/04:30pm 19.2 14.7 9.9 55 5.0 WSW 24 39 13 21 1015.3 1015.0 0.0
23/04:00pm 20.0 14.5 9.3 50 5.8 SW 28 41 15 22 1015.0 1014.6 0.0
23/03:30pm 20.3 15.7 11.0 55 5.2 SW 26 37 14 20 1014.6 1014.2 0.0
23/03:00pm 20.3 15.5 10.4 53 5.4 WSW 26 41 14 22 1014.4 1014.0 0.0
23/02:30pm 21.2 16.1 10.7 51 5.8 WSW 28 44 15 24 1014.2 1013.8 0.0
23/02:10pm 21.7 16.7 10.8 50 6.1 WSW 28 48 15 26 1013.9 1013.5 0.0
23/02:00pm 21.3 16.4 11.3 53 5.6 WSW 28 39 15 21 1013.8 1013.4 0.0
23/01:30pm 20.9 16.8 11.5 55 5.3 WSW 24 37 13 20 1013.8 1013.4 0.0
23/01:00pm 19.4 15.5 12.2 63 4.1 W 24 35 13 19 1013.8 1013.4 0.0
23/12:30pm 16.4 11.8 12.2 76 2.3 WSW 28 44 15 24 1014.0 1013.6 0.0
23/12:27pm 16.7 11.6 11.8 73 2.7 WSW 30 44 16 24 1013.9 1013.5 0.0
23/12:00pm 21.7 17.7 11.7 53 5.7 W 24 35 13 19 1013.4 1013.0 0.0
23/11:30am 20.6 15.1 10.7 53 5.5 WNW 30 48 16 26 1013.2 1012.8 0.0
23/11:25am 20.8 15.5 10.0 50 5.9 W 28 48 15 26 1013.1 1012.7 0.0
23/11:00am 20.3 14.4 10.4 53 5.4 W 32 44 17 24 1013.2 1012.8 0.0
23/10:30am 20.7 15.4 9.9 50 5.9 W 28 41 15 22 1013.3 1012.9 0.0
23/10:00am 20.3 14.3 10.1 52 5.6 W 32 50 17 27 1013.2 1012.8 0.0
23/09:37am 20.0 14.8 10.4 54 5.3 W 28 46 15 25 1012.9 1012.5 0.0
23/09:30am 19.7 14.2 10.7 56 5.0 WNW 30 44 16 24 1013.0 1012.6 0.0
23/09:00am 18.9 13.4 10.5 58 4.6 W 30 43 16 23 1013.0 1012.6 0.0
23/08:30am 17.4 12.3 10.5 64 3.7 WNW 28 41 15 22 1012.8 1012.4 0.0
23/08:00am 16.5 11.1 10.8 69 3.1 WNW 30 44 16 24 1012.9 1012.5 0.0
23/07:30am 15.5 11.0 11.3 76 2.3 WNW 26 41 14 22 1012.7 1012.3 0.0
23/07:00am 14.3 11.2 11.6 84 1.5 WNW 19 33 10 18 1012.7 1012.3 0.0
23/06:30am 13.8 10.5 11.5 86 1.2 WNW 20 32 11 17 1012.4 1011.9 0.0
23/06:00am 13.1 9.9 11.2 88 1.0 WNW 19 28 10 15 1011.9 1011.5 0.0
23/05:30am 12.6 9.2 10.7 88 1.0 WNW 19 26 10 14 1011.6 1011.2 0.0
23/05:00am 12.8 9.8 10.7 87 1.1 NW 17 26 9 14 1011.5 1011.1 0.0
23/04:30am 13.0 9.4 10.7 86 1.2 NW 20 30 11 16 1011.4 1011.0 0.0
23/04:00am 12.9 8.9 10.3 84 1.4 NW 22 32 12 17 1010.9 1010.5 0.0
23/03:30am 12.9 9.9 10.6 86 1.2 NW 17 24 9 13 1010.9 1010.5 0.0
23/03:00am 12.9 10.6 10.6 86 1.2 NNW 13 20 7 11 1010.9 1010.5 0.0
23/02:30am 13.4 10.5 11.1 86 1.2 WNW 17 24 9 13 1011.1 1010.7 0.0
23/02:00am 13.8 10.7 11.5 86 1.2 WNW 19 26 10 14 1011.5 1011.1 0.0
23/01:30am 14.1 10.5 11.8 86 1.3 WNW 22 35 12 19 1011.2 1010.8 0.0
23/01:00am 14.4 10.1 11.9 85 1.4 WNW 26 41 14 22 1011.3 1010.9 0.0
23/12:30am 14.7 11.5 12.0 84 1.5 WNW 20 28 11 15 1011.6 1011.2 0.0
23/12:00am 15.1 12.2 12.2 83 1.6 WNW 19 26 10 14 1011.7 1011.3 0.0
 
Date/Time
WST
Temp
°C
App
Temp
°C
Dew
Point
Rel
Hum
%
Delta-T
°C
Wind Press
QNH
hPa
Press
MSL
hPa
Rain
since 9 am
mm
Dir
 
Spd
km/h
Gust
km/h
Spd
kts
Gust
kts
22/11:30pm 15.6 13.1 12.4 81 1.8 WNW 17 28 9 15 1011.9 1011.5 0.0
22/11:00pm 16.2 13.3 12.4 78 2.1 WNW 19 30 10 16 1012.0 1011.6 0.0
22/10:30pm 16.8 14.3 12.3 75 2.5 WNW 17 24 9 13 1012.4 1011.9 0.0
22/10:00pm 17.6 15.2 12.5 72 2.9 WNW 17 24 9 13 1012.6 1012.1 0.0
22/09:30pm 18.1 15.6 12.3 69 3.3 W 17 26 9 14 1012.8 1012.4 0.0
22/09:00pm 19.3 17.3 13.9 71 3.1 W 17 24 9 13 1012.7 1012.3 0.0
22/08:30pm 19.9 19.4 13.8 68 3.6 W 9 15 5 8 1013.0 1012.6 0.0
22/08:00pm 19.8 20.3 14.0 69 3.4 W 4 15 2 8 1012.9 1012.5 0.0
22/07:30pm 20.5 21.5 14.2 67 3.7 WSW 2 7 1 4 1012.6 1012.1 0.0
22/07:00pm 19.8 17.1 14.6 72 3.1 WNW 22 33 12 18 1011.5 1011.1 0.0
22/06:30pm 20.1 19.1 14.5 70 3.3 ESE 13 19 7 10 1009.7 1009.2 0.0
22/06:00pm 20.4 19.8 14.5 69 3.5 E 11 19 6 10 1010.1 1009.7 0.0
22/05:30pm 20.7 20.9 14.1 66 3.9 E 6 11 3 6 1010.4 1010.0 0.0
22/05:00pm 21.2 17.1 13.9 63 4.3 NNE 28 37 15 20 1010.5 1010.1 0.0
22/04:51pm 23.3 19.2 13.8 55 5.6 NE 28 48 15 26 1010.5 1010.1 0.0
22/04:30pm 25.4 22.4 11.9 43 7.8 E 19 24 10 13 1009.0 1008.6 0.0
22/04:00pm 25.9 22.8 11.6 40 8.3 E 19 28 10 15 1009.9 1009.4 0.0
22/03:30pm 26.2 22.6 11.9 41 8.3 E 22 33 12 18 1011.1 1010.7 0.0
22/03:00pm 27.2 23.8 12.4 40 8.7 ENE 22 35 12 19 1012.4 1011.9 0.0
22/02:30pm 26.7 23.4 12.7 42 8.3 ENE 22 32 12 17 1012.7 1012.3 0.0
22/02:00pm 26.3 23.1 13.1 44 7.8 ENE 22 37 12 20 1013.5 1013.1 0.0
22/01:30pm 25.4 21.2 12.3 44 7.6 ENE 26 33 14 18 1014.3 1013.9 0.0
22/01:00pm 24.9 21.5 12.5 46 7.2 ENE 22 32 12 17 1014.9 1014.5 0.0
22/12:30pm 24.1 20.6 12.1 47 6.9 E 22 32 12 17 1015.4 1015.1 0.0
22/12:00pm 23.1 20.3 13.3 54 5.7 E 20 33 11 18 1016.5 1016.1 0.0
22/11:30am 22.1 19.1 12.4 54 5.6 ENE 20 30 11 16 1017.2 1016.8 0.0
22/11:00am 21.1 17.9 12.0 56 5.2 ENE 20 28 11 15 1017.9 1017.5 0.0
22/10:30am 20.5 17.7 12.5 60 4.6 ENE 19 24 10 13 1018.5 1018.2 0.0
22/10:00am 19.4 16.4 11.9 62 4.2 ENE 19 28 10 15 1019.1 1018.7 0.0
22/09:30am 18.9 15.6 11.5 62 4.1 ENE 20 30 11 16 1019.2 1018.8 0.0
22/09:00am 17.5 13.4 11.5 68 3.3 E 24 33 13 18 1019.2 1018.8 0.0
22/08:30am 16.1 12.2 10.8 71 2.9 E 22 32 12 17 1019.4 1019.0 0.0
22/08:00am 14.6 10.6 10.6 77 2.1 E 22 32 12 17 1019.7 1019.3 0.0
22/07:30am 13.6 10.0 10.4 81 1.7 E 20 26 11 14 1020.1 1019.7 0.0
22/07:00am 13.1 9.1 10.3 83 1.5 E 22 30 12 16 1020.2 1019.8 0.0
22/06:30am 12.9 9.3 10.4 85 1.3 E 20 28 11 15 1020.3 1019.9 0.0
22/06:00am 12.5 9.1 10.4 87 1.1 E 19 28 10 15 1020.3 1019.9 0.0
22/05:30am 12.3 9.6 10.2 87 1.1 E 15 22 8 12 1020.3 1019.9 0.0
22/05:00am 12.2 9.0 10.1 87 1.1 E 17 24 9 13 1020.3 1019.9 0.0
22/04:30am 12.1 8.9 10.0 87 1.1 E 17 26 9 14 1020.5 1020.1 0.0
22/04:00am 12.3 9.6 10.2 87 1.1 E 15 26 8 14 1020.4 1020.0 0.0
22/03:30am 12.2 9.0 10.1 87 1.1 E 17 20 9 11 1020.2 1019.8 0.0
22/03:00am 12.1 10.1 10.2 88 1.0 E 11 17 6 9 1020.6 1020.2 0.0
22/02:30am 11.8 8.6 9.9 88 1.0 E 17 24 9 13 1020.7 1020.4 0.0
22/02:00am 11.4 8.5 9.5 88 1.0 E 15 22 8 12 1020.9 1020.6 0.0
22/01:30am 11.2 7.4 9.1 87 1.1 E 19 26 10 14 1021.0 1020.7 0.0
22/01:00am 11.1 8.0 9.0 87 1.1 E 15 28 8 15 1021.2 1020.9 0.0
22/12:30am 10.7 8.7 8.5 86 1.1 E 9 15 5 8 1021.6 1021.3 0.0
22/12:00am 10.8 8.3 8.4 85 1.2 E 11 17 6 9 1021.8 1021.5 0.0
 
Date/Time
WST
Temp
°C
App
Temp
°C
Dew
Point
Rel
Hum
%
Delta-T
°C
Wind Press
QNH
hPa
Press
MSL
hPa
Rain
since 9 am
mm
Dir
 
Spd
km/h
Gust
km/h
Spd
kts
Gust
kts
21/11:30pm 10.9 8.0 8.3 84 1.3 E 13 20 7 11 1021.8 1021.5 0.0
21/11:00pm 11.0 8.1 8.1 82 1.4 ESE 13 22 7 12 1022.3 1021.9 0.0
21/10:30pm 11.3 7.7 8.2 81 1.5 ESE 17 24 9 13 1022.7 1022.3 0.0
21/10:00pm 11.7 8.4 8.2 79 1.7 ESE 15 22 8 12 1023.1 1022.7 0.0
21/09:30pm 12.3 9.1 8.6 78 1.9 ESE 15 24 8 13 1023.3 1022.9 0.0
21/09:00pm 12.8 9.3 8.7 76 2.1 ESE 17 28 9 15 1023.1 1022.7 0.0
21/08:30pm 13.7 9.9 9.0 73 2.4 ESE 19 28 10 15 1023.4 1023.1 0.0
21/08:00pm 14.9 11.0 9.5 70 2.8 ESE 20 33 11 18 1023.5 1023.2 0.0

Other Formats:

Comma delimited format used in spreadsheet applications
http://www.bom.gov.au/fwo/IDW60801/IDW60801.94641.axf

JavaScript Object Notation format (JSON) in row-major order
http://www.bom.gov.au/fwo/IDW60801/IDW60801.94641.json